Anderson, Pennsylvania
Current Conditions -  °F | °C
As of 3:53 PM on Tuesday 27 Jan 2015 (Local Time) from KUNV Reporting Station
Broken Clouds Broken Clouds  
Wind Chill: 17°   Ceiling: 9000
Heat Index: 27°   Visibility: 8mi
Dew Point: 16°   Wind: 10mph
Humidity: 64%   Direction: 300°WNW
Pressure: 29.84"   Gusts: NA
Location:  40.544°N, 77.6033°W
Report Text: KUNV 272053Z 30009KT 8SM SCT030 BKN090 M03/M09 A2984
Loading
Personal Weather Stations






























Interactive Weather Map New forecast layout! Learn more

10-Day Weather Forecast

Advertisements
Track Severe Weather on mobile